Архив погоды в Грозном

Метеограмма Грозный
Вторник, 23 Июля
Время местн. Темп Ветер Видим Явления Облачность нижн/средн/верх Атм. давл. Влжн Точка росы ВНГО R Сост. почвы Tg s
Напр Скр Прв ур.ст ур.м изм
12:00 +23.3° В 2 - 20 км - облачно 737 759 -0.7 66% +16.7° 1.5 км - - - -
09:00 +20.8° В 1 - 20 км - облачно с прояснениями 738 760 -1.2 81% +17.5° 1.5 км - - - -
06:00 +18.8° штиль 0 - 20 км - облачно с прояснениями 739 761 -0.1 98% +18.5° 1.5 км - Влажная (без луж) - -
03:00 +18.6° штиль 0 - 10 км облака рассеиваются {гроза, ливневые осадки} переменная облачность 739 761 -0.6 98% +18.2° - - - - -
00:00 +19° штиль 0 - 10 км облака рассеиваются {гроза, ливневые осадки} облачно с прояснениями 739 762 -1.4 98% +18.6° 1 км - - - -
Понедельник, 22 Июля
Время местн. Темп Ветер Видим Явления Облачность нижн/средн/верх Атм. давл. Влжн Точка росы ВНГО R Сост. почвы Tg s
Напр Скр Прв ур.ст ур.м изм
21:00 +21.2° З 3 - 10 км зарница облачно 741 763 +1.7 82% +18.1° 600 м - - - -
18:00 +22.7° З 3 - 20 км - облачно 739 761 +0.8 74% +17.9° 1.5 км - - - -
15:00 +24.1° З 4 - 20 км - облачно 738 760 +0.5 71% +18.4° 1.5 км - - - -
12:00 +24.6° З,С-З 3 - 20 км - облачно 738 760 -0.1 69% +18.5° 1.5 км - - - -
09:00 +24.4° З,С-З 4 - 20 км - преимущественно облачно 738 760 +0.3 72% +19.1° 1.5 км - - - -
06:00 +21.5° З,С-З 1 - 20 км - облачно 738 760 +0.5 85% +18.8° 1.5 км - Сухая (без трещин) - -
03:00 +20.8° штиль 0 - 10 км - облачно с прояснениями 737 759 +0.3 85% +18.2° 1 км - - - -
00:00 +22.7° З 1 - 10 км - облачно 737 759 +0.7 75% +18.1° 1 км - - - -
Воскресенье, 21 Июля
Время местн. Темп Ветер Видим Явления Облачность нижн/средн/верх Атм. давл. Влжн Точка росы ВНГО R Сост. почвы Tg s
Напр Скр Прв ур.ст ур.м изм
21:00 +24.8° В,Ю-В 2 - 10 км - преимущественно облачно 736 758 +0.3 62% +16.9° - - - - -
18:00 +29.2° В 3 - 20 км - переменная облачность 736 758 -0.4 41% +14.7° - - - - -
15:00 +32.6° В 3 - 20 км - переменная облачность 736 758 -1.4 34% +14.7° - - - - -
12:00 +30.2° В 3 - 20 км - переменная облачность 738 759 -1.6 51% +18.8° - - - - -
09:00 +26.7° В,С-В 2 - 20 км - переменная облачность 739 761 -1.1 60% +18.4° - - - - -
06:00 +22.9° штиль 0 - 20 км - ясно 740 763 +0.2 82% +19.7° более 2.5 км - Сухая (без трещин) - -
03:00 +21.1° штиль 0 - 10 км - облачно 740 763 -0.2 88% +19.1° 1 км - - - -
00:00 +22.6° штиль 0 - 10 км - облачно с прояснениями 740 763 -0.5 82% +19.3° 1 км - - - -
Суббота, 20 Июля
Время местн. Темп Ветер Видим Явления Облачность нижн/средн/верх Атм. давл. Влжн Точка росы ВНГО R Сост. почвы Tg s
Напр Скр Прв ур.ст ур.м изм
21:00 +23.5° штиль 0 - 10 км - облачно 741 763 +0.1 77% +19.3° 1 км - - - -
18:00 +24.6° Ю-З 2 - 20 км - облачно 741 763 +0.1 70% +18.7° 1.5 км - - - -
15:00 +26.1° З 1 - 20 км - облачно 741 763 -0.4 65% +18.9° 1.5 км - - - -
12:00 +26.5° З,С-З 2 - 20 км - облачно с прояснениями 741 763 -0.5 60% +18.1° - - - - -
09:00 +23.2° З 3 - 20 км - преимущественно облачно 742 764 +0.4 74% +18.4° 1.5 км - - - -